createdAt,value
2022-12-31T00:04:11.117Z,62.93
2022-12-31T00:11:11.551Z,61.45
2022-12-31T00:24:05.863Z,60.06
2022-12-31T00:31:21.704Z,58.82
2022-12-31T00:39:31.911Z,59.06
2022-12-31T01:07:14.725Z,60.26
2022-12-31T01:34:37.933Z,64.92
2022-12-31T01:37:50.173Z,66.01
2022-12-31T01:41:00.248Z,66.32
2022-12-31T01:44:55.301Z,66.07
2022-12-31T01:48:06.282Z,65.77
2022-12-31T01:51:14.189Z,65.80
2022-12-31T01:54:28.819Z,65.43
2022-12-31T01:57:39.489Z,65.37
2022-12-31T02:00:50.449Z,65.27
2022-12-31T02:04:02.235Z,64.80
2022-12-31T02:07:12.211Z,64.71
2022-12-31T02:10:23.968Z,65.00
2022-12-31T02:13:30.391Z,65.65
2022-12-31T02:16:55.287Z,65.84
2022-12-31T02:20:49.063Z,65.95
2022-12-31T02:28:07.458Z,66.26
2022-12-31T02:31:28.068Z,66.15
2022-12-31T02:34:42.820Z,66.43
2022-12-31T02:38:00.057Z,66.49
2022-12-31T02:41:07.441Z,66.17
2022-12-31T02:44:27.762Z,66.36
2022-12-31T02:47:59.613Z,65.92
2022-12-31T02:51:31.148Z,65.74
2022-12-31T02:54:55.760Z,65.59
2022-12-31T02:58:17.029Z,65.17
2022-12-31T03:01:48.805Z,65.04
2022-12-31T03:04:59.973Z,64.77
2022-12-31T03:08:06.743Z,65.30
2022-12-31T03:11:32.600Z,65.20
2022-12-31T03:14:36.776Z,65.68
2022-12-31T03:17:42.667Z,65.46
2022-12-31T03:21:07.127Z,65.20
2022-12-31T03:24:28.003Z,64.75
2022-12-31T03:27:34.862Z,64.93
2022-12-31T03:30:43.919Z,64.71
2022-12-31T03:33:53.728Z,64.22
2022-12-31T03:37:02.224Z,64.20
2022-12-31T03:40:23.129Z,63.99
2022-12-31T03:43:29.892Z,64.13
2022-12-31T03:46:36.749Z,64.21
2022-12-31T03:49:42.576Z,64.72
2022-12-31T03:52:51.897Z,65.29
2022-12-31T03:55:58.743Z,65.26
2022-12-31T03:59:05.704Z,65.39
2022-12-31T04:02:11.760Z,65.13
2022-12-31T04:05:20.611Z,65.28
2022-12-31T04:08:29.566Z,65.57
2022-12-31T04:11:36.509Z,65.36
2022-12-31T04:14:42.654Z,65.49
2022-12-31T04:17:52.715Z,65.50
2022-12-31T04:21:04.719Z,65.46
2022-12-31T04:24:15.338Z,65.70
2022-12-31T04:31:37.387Z,65.24
2022-12-31T04:34:44.276Z,65.45
2022-12-31T04:37:50.870Z,65.66
2022-12-31T04:41:14.128Z,65.33
2022-12-31T04:44:21.150Z,65.08
2022-12-31T04:47:31.262Z,64.71
2022-12-31T04:50:38.174Z,64.50
2022-12-31T04:53:46.031Z,64.44
2022-12-31T04:56:58.741Z,64.59
2022-12-31T05:00:06.178Z,64.41
2022-12-31T05:03:12.429Z,64.09
2022-12-31T05:06:32.320Z,64.28
2022-12-31T05:09:43.751Z,64.11
2022-12-31T05:12:57.462Z,64.46
2022-12-31T05:16:04.740Z,64.78
2022-12-31T05:19:23.433Z,65.33
2022-12-31T05:22:52.554Z,65.99
2022-12-31T05:26:00.186Z,65.92
2022-12-31T05:29:10.740Z,65.83
2022-12-31T05:32:17.882Z,66.08
2022-12-31T05:35:40.961Z,66.04
2022-12-31T05:38:59.303Z,66.40
2022-12-31T05:42:14.020Z,66.61
2022-12-31T05:49:30.080Z,66.28
2022-12-31T05:52:47.809Z,66.40
2022-12-31T05:55:59.034Z,66.45
2022-12-31T05:59:10.821Z,66.72
2022-12-31T06:02:17.344Z,66.79
2022-12-31T06:05:28.081Z,66.57
2022-12-31T06:08:37.975Z,66.71
2022-12-31T06:11:45.994Z,66.64
2022-12-31T06:14:53.075Z,66.54
2022-12-31T06:18:00.036Z,66.36
2022-12-31T06:21:09.276Z,65.94
2022-12-31T06:24:16.129Z,65.67
2022-12-31T06:27:22.105Z,65.62
2022-12-31T06:30:28.890Z,65.21
2022-12-31T06:33:36.214Z,64.84
2022-12-31T06:36:45.408Z,65.04
2022-12-31T06:39:51.897Z,65.17
2022-12-31T06:43:00.415Z,65.57
2022-12-31T06:46:09.838Z,65.61
2022-12-31T06:49:17.426Z,65.60
2022-12-31T06:52:26.099Z,65.74
2022-12-31T06:55:34.175Z,65.84
2022-12-31T06:58:42.307Z,65.98
2022-12-31T07:02:08.443Z,65.94
2022-12-31T07:05:33.831Z,66.02
2022-12-31T07:08:57.111Z,65.79
2022-12-31T07:12:15.283Z,65.70
2022-12-31T07:15:49.294Z,65.57
2022-12-31T07:19:15.839Z,65.54
2022-12-31T07:22:25.099Z,65.50
2022-12-31T07:25:35.592Z,65.23
2022-12-31T07:29:02.247Z,64.97
2022-12-31T07:32:28.512Z,64.69
2022-12-31T07:35:55.606Z,64.89
2022-12-31T07:39:12.138Z,64.39
2022-12-31T07:42:36.014Z,64.66
2022-12-31T07:45:53.676Z,64.30
2022-12-31T07:49:01.675Z,63.78
2022-12-31T07:52:08.891Z,63.56
2022-12-31T07:55:15.932Z,62.46
2022-12-31T07:58:51.239Z,61.78
2022-12-31T08:02:12.166Z,61.33
2022-12-31T08:05:32.868Z,61.55
2022-12-31T08:08:56.441Z,61.13
2022-12-31T08:12:04.638Z,61.58
2022-12-31T08:15:26.865Z,61.48
2022-12-31T08:18:36.959Z,61.80
2022-12-31T08:22:04.610Z,61.79
2022-12-31T08:25:33.203Z,62.05
2022-12-31T08:29:04.714Z,61.78
2022-12-31T08:32:27.102Z,61.58
2022-12-31T08:36:03.374Z,61.07
2022-12-31T08:39:25.687Z,61.02
2022-12-31T08:42:44.622Z,61.12
2022-12-31T08:45:55.687Z,60.60
2022-12-31T08:49:05.898Z,61.01
2022-12-31T08:52:23.211Z,60.27
2022-12-31T08:55:31.517Z,60.27
2022-12-31T08:58:54.313Z,60.15
2022-12-31T09:02:47.860Z,60.07
2022-12-31T09:06:13.390Z,60.18
2022-12-31T09:09:42.083Z,60.35
2022-12-31T09:13:15.133Z,59.88
2022-12-31T09:16:36.435Z,60.14
2022-12-31T09:19:42.329Z,60.51
2022-12-31T09:22:53.106Z,60.35
2022-12-31T09:26:18.560Z,60.50
2022-12-31T09:29:51.706Z,60.59
2022-12-31T09:33:11.068Z,60.13
2022-12-31T09:36:30.428Z,60.24
2022-12-31T09:39:47.154Z,60.28
2022-12-31T09:43:29.303Z,60.59
2022-12-31T09:47:52.928Z,61.16
2022-12-31T09:51:31.479Z,61.01
2022-12-31T09:54:57.092Z,61.18
2022-12-31T09:58:31.736Z,61.24
2022-12-31T10:02:00.282Z,61.27
2022-12-31T10:05:43.439Z,60.89
2022-12-31T10:09:30.218Z,60.46
2022-12-31T10:13:25.789Z,60.17
2022-12-31T10:17:06.090Z,60.53
2022-12-31T10:20:45.542Z,59.89
2022-12-31T10:24:42.386Z,59.83
2022-12-31T10:28:08.727Z,59.96
2022-12-31T10:31:34.608Z,59.83
2022-12-31T10:35:02.672Z,59.89
2022-12-31T10:38:27.510Z,59.44
2022-12-31T10:42:24.575Z,59.95
2022-12-31T10:46:29.528Z,59.42
2022-12-31T10:50:31.971Z,59.43
2022-12-31T10:54:26.993Z,59.06
2022-12-31T10:58:39.456Z,59.15
2022-12-31T11:02:03.871Z,59.13
2022-12-31T11:06:14.215Z,58.95
2022-12-31T11:10:15.215Z,58.80
2022-12-31T11:14:12.768Z,58.43
2022-12-31T11:17:47.856Z,57.90
2022-12-31T11:21:28.031Z,57.28
2022-12-31T11:25:03.240Z,56.06
2022-12-31T11:29:01.659Z,55.09
2022-12-31T11:32:33.989Z,54.62
2022-12-31T11:36:16.852Z,54.49
2022-12-31T11:39:50.148Z,54.32
2022-12-31T11:43:04.121Z,54.22
2022-12-31T11:46:36.946Z,53.68
2022-12-31T11:50:15.497Z,54.26
2022-12-31T11:54:15.807Z,53.34
2022-12-31T11:57:34.408Z,52.60
2022-12-31T12:00:47.384Z,52.47
2022-12-31T12:03:54.302Z,52.99
2022-12-31T12:07:00.186Z,53.44
2022-12-31T12:10:36.188Z,54.13
2022-12-31T12:13:42.696Z,54.81
2022-12-31T12:16:49.780Z,55.11
2022-12-31T12:19:59.841Z,55.61
2022-12-31T12:23:20.342Z,55.79
2022-12-31T12:26:41.637Z,56.35
2022-12-31T12:29:48.172Z,56.55
2022-12-31T12:32:59.582Z,56.68
2022-12-31T12:36:15.546Z,56.54
2022-12-31T12:39:26.267Z,56.74
2022-12-31T12:42:35.619Z,57.02
2022-12-31T12:45:52.423Z,57.11
2022-12-31T12:49:02.817Z,57.11
2022-12-31T12:52:46.180Z,57.41
2022-12-31T12:56:22.935Z,57.41
2022-12-31T13:00:12.480Z,57.14
2022-12-31T13:04:33.493Z,57.48
2022-12-31T13:07:46.990Z,57.50
2022-12-31T13:11:21.876Z,57.78
2022-12-31T13:14:41.988Z,57.63
2022-12-31T13:18:07.667Z,57.81
2022-12-31T13:21:39.626Z,57.65
2022-12-31T13:25:03.778Z,57.68
2022-12-31T13:28:19.038Z,57.89
2022-12-31T13:31:37.362Z,57.75
2022-12-31T13:34:54.712Z,58.08
2022-12-31T13:38:14.661Z,58.01
2022-12-31T13:41:30.504Z,57.79
2022-12-31T13:44:48.906Z,57.65
2022-12-31T13:48:09.076Z,57.87
2022-12-31T13:51:32.709Z,57.94
2022-12-31T13:54:55.690Z,58.10
2022-12-31T13:58:19.384Z,57.93
2022-12-31T14:01:36.075Z,58.01
2022-12-31T14:04:53.408Z,58.16
2022-12-31T14:08:05.442Z,57.98
2022-12-31T14:11:27.721Z,58.43
2022-12-31T14:14:48.834Z,58.45
2022-12-31T14:18:12.701Z,58.59
2022-12-31T14:21:31.648Z,58.58
2022-12-31T14:24:49.964Z,58.99
2022-12-31T14:28:02.220Z,58.94
2022-12-31T14:31:30.600Z,58.91
2022-12-31T14:34:57.641Z,59.16
2022-12-31T14:38:22.827Z,59.00
2022-12-31T14:42:06.574Z,59.27
2022-12-31T14:45:36.396Z,59.57
2022-12-31T14:49:00.618Z,59.61
2022-12-31T14:52:26.544Z,59.63
2022-12-31T14:55:36.572Z,59.86
2022-12-31T14:58:46.202Z,59.70
2022-12-31T15:01:52.542Z,59.77
2022-12-31T15:05:20.383Z,59.66
2022-12-31T15:08:52.224Z,59.44
2022-12-31T15:12:33.941Z,59.70
2022-12-31T15:16:21.737Z,59.88
2022-12-31T15:20:19.054Z,59.74
2022-12-31T15:23:35.888Z,59.57
2022-12-31T15:26:54.101Z,59.71
2022-12-31T15:30:00.647Z,59.65
2022-12-31T15:33:22.810Z,59.58
2022-12-31T15:36:32.535Z,59.30
2022-12-31T15:39:45.932Z,59.56
2022-12-31T15:43:01.400Z,59.64
2022-12-31T15:46:20.395Z,59.35
2022-12-31T15:49:39.798Z,59.44
2022-12-31T15:52:53.387Z,59.24
2022-12-31T15:56:04.337Z,59.30
2022-12-31T15:59:20.149Z,58.87
2022-12-31T16:02:30.481Z,58.85
2022-12-31T16:05:39.791Z,59.00
2022-12-31T16:08:51.206Z,58.81
2022-12-31T16:12:01.338Z,58.58
2022-12-31T16:15:08.822Z,58.63
2022-12-31T16:18:22.628Z,58.57
2022-12-31T16:21:35.840Z,58.69
2022-12-31T16:25:03.143Z,58.62
2022-12-31T16:28:08.645Z,58.47
2022-12-31T16:31:22.026Z,58.48
2022-12-31T16:34:31.435Z,58.47
2022-12-31T16:37:40.791Z,58.52
2022-12-31T16:41:14.357Z,58.23
2022-12-31T16:44:30.513Z,58.17
2022-12-31T16:47:40.994Z,57.85
2022-12-31T16:50:51.956Z,58.01
2022-12-31T16:54:02.475Z,57.98
2022-12-31T16:57:12.097Z,57.97
2022-12-31T17:00:22.218Z,57.60
2022-12-31T17:03:32.737Z,57.64
2022-12-31T17:06:38.717Z,57.77
2022-12-31T17:09:48.111Z,57.81
2022-12-31T17:16:27.705Z,57.56
2022-12-31T17:19:47.821Z,57.79
2022-12-31T17:23:01.299Z,57.66
2022-12-31T17:26:15.706Z,57.44
2022-12-31T17:29:26.563Z,57.92
2022-12-31T17:32:40.160Z,57.79
2022-12-31T17:35:49.459Z,57.76
2022-12-31T17:38:55.380Z,57.58
2022-12-31T17:42:05.583Z,57.64
2022-12-31T17:45:24.393Z,57.37
2022-12-31T17:48:34.505Z,57.09
2022-12-31T17:51:45.611Z,57.12
2022-12-31T17:54:54.702Z,57.00
2022-12-31T17:58:09.326Z,56.57
2022-12-31T18:01:23.052Z,56.73
2022-12-31T18:04:31.912Z,56.37
2022-12-31T18:07:38.806Z,56.29
2022-12-31T18:10:47.888Z,56.15
2022-12-31T18:13:58.281Z,56.18
2022-12-31T18:17:04.251Z,55.91
2022-12-31T18:20:15.439Z,55.83
2022-12-31T18:23:28.756Z,56.07
2022-12-31T18:26:36.090Z,55.96
2022-12-31T18:29:44.622Z,55.98
2022-12-31T18:32:51.860Z,55.76
2022-12-31T18:36:08.738Z,55.70
2022-12-31T18:39:16.458Z,55.74
2022-12-31T18:42:28.556Z,55.93
2022-12-31T18:45:37.837Z,55.44
2022-12-31T18:48:44.445Z,55.58
2022-12-31T18:51:54.312Z,55.36
2022-12-31T18:55:00.294Z,55.55
2022-12-31T18:58:11.315Z,55.31
2022-12-31T19:01:31.182Z,55.42
2022-12-31T19:04:37.909Z,55.03
2022-12-31T19:07:43.787Z,54.78
2022-12-31T19:10:54.416Z,54.76
2022-12-31T19:14:00.237Z,54.87
2022-12-31T19:20:14.512Z,54.61
2022-12-31T19:23:24.200Z,54.33
2022-12-31T19:26:30.157Z,54.37
2022-12-31T19:29:37.532Z,54.03
2022-12-31T19:32:45.970Z,53.87
2022-12-31T19:35:52.865Z,53.77
2022-12-31T19:38:58.653Z,54.16
2022-12-31T19:42:05.212Z,53.93
2022-12-31T19:45:18.249Z,53.72
2022-12-31T19:48:32.710Z,53.70
2022-12-31T19:51:39.043Z,53.79
2022-12-31T19:54:45.614Z,53.94
2022-12-31T19:57:52.648Z,53.87
2022-12-31T20:01:03.433Z,53.78
2022-12-31T20:04:11.948Z,54.30
2022-12-31T20:07:23.605Z,53.96
2022-12-31T20:10:32.719Z,54.20
2022-12-31T20:13:40.374Z,54.41
2022-12-31T20:16:47.014Z,54.12
2022-12-31T20:19:57.433Z,54.18
2022-12-31T20:23:06.552Z,53.90
2022-12-31T20:26:15.353Z,54.24
2022-12-31T20:29:21.956Z,54.13
2022-12-31T20:32:28.681Z,54.20
2022-12-31T20:35:37.071Z,54.21
2022-12-31T20:38:44.007Z,54.63
2022-12-31T20:41:50.610Z,54.38
2022-12-31T20:44:57.311Z,54.21
2022-12-31T20:48:03.139Z,54.35
2022-12-31T20:51:12.740Z,54.72
2022-12-31T20:54:18.729Z,54.55
2022-12-31T20:57:30.171Z,54.79
2022-12-31T21:00:39.599Z,54.68
2022-12-31T21:04:06.718Z,54.67
2022-12-31T21:07:15.685Z,54.96
2022-12-31T21:10:22.298Z,55.24
2022-12-31T21:13:28.280Z,55.02
2022-12-31T21:16:35.800Z,55.21
2022-12-31T21:19:41.825Z,55.17
2022-12-31T21:22:52.068Z,55.24
2022-12-31T21:25:57.906Z,55.17
2022-12-31T21:29:04.844Z,55.18
2022-12-31T21:32:10.687Z,55.39
2022-12-31T21:38:47.623Z,55.41
2022-12-31T21:41:54.394Z,55.31
2022-12-31T21:45:00.567Z,55.57
2022-12-31T21:48:25.124Z,55.21
2022-12-31T21:51:32.049Z,55.55
2022-12-31T21:54:53.790Z,55.49
2022-12-31T21:58:25.173Z,55.21
2022-12-31T22:01:39.139Z,55.34
2022-12-31T22:05:02.341Z,54.95
2022-12-31T22:08:09.898Z,55.23
2022-12-31T22:11:21.019Z,55.17
2022-12-31T22:14:27.774Z,55.27
2022-12-31T22:17:33.673Z,55.27
2022-12-31T22:20:41.792Z,54.87
2022-12-31T22:23:48.772Z,54.86
2022-12-31T22:26:59.824Z,55.18
2022-12-31T22:30:25.651Z,54.97
2022-12-31T22:33:32.334Z,54.99
2022-12-31T22:36:38.314Z,54.93
2022-12-31T22:39:45.138Z,55.08
2022-12-31T22:42:53.732Z,54.93
2022-12-31T22:46:00.520Z,54.83
2022-12-31T22:49:08.038Z,54.75
2022-12-31T22:52:14.754Z,54.97
2022-12-31T22:55:20.838Z,54.80
2022-12-31T22:58:30.526Z,54.51
2022-12-31T23:01:37.034Z,54.52
2022-12-31T23:04:43.768Z,54.41
2022-12-31T23:07:49.631Z,54.69
2022-12-31T23:11:05.813Z,53.88
2022-12-31T23:14:32.657Z,54.21
2022-12-31T23:17:51.709Z,54.28
2022-12-31T23:21:09.825Z,54.13
2022-12-31T23:24:22.773Z,54.06
2022-12-31T23:27:32.039Z,53.97
2022-12-31T23:30:42.366Z,54.36
2022-12-31T23:33:48.327Z,54.07
2022-12-31T23:36:54.963Z,54.03
2022-12-31T23:40:00.927Z,54.06
2022-12-31T23:43:11.378Z,54.16
2022-12-31T23:46:20.888Z,54.19
2022-12-31T23:49:27.775Z,54.08
2022-12-31T23:52:33.736Z,53.82
2022-12-31T23:55:40.328Z,53.85
2022-12-31T23:58:46.559Z,53.85
